sensor_id;sensor_type;location;lat;lon;timestamp;temperature;humidity
38604;DHT22;24924;50.054;8.790;2023-07-24T00:02:15;21.00;99.90
38604;DHT22;24924;50.054;8.790;2023-07-24T00:04:41;20.90;99.90
38604;DHT22;24924;50.054;8.790;2023-07-24T00:07:07;21.00;99.90
38604;DHT22;24924;50.054;8.790;2023-07-24T00:09:33;21.00;99.90
38604;DHT22;24924;50.054;8.790;2023-07-24T00:11:59;20.80;99.90
38604;DHT22;24924;50.054;8.790;2023-07-24T00:14:25;21.00;99.90
38604;DHT22;24924;50.054;8.790;2023-07-24T00:16:50;21.00;99.90
38604;DHT22;24924;50.054;8.790;2023-07-24T00:19:16;20.30;99.90
38604;DHT22;24924;50.054;8.790;2023-07-24T00:21:43;20.60;99.90
38604;DHT22;24924;50.054;8.790;2023-07-24T00:24:09;20.70;99.90
38604;DHT22;24924;50.054;8.790;2023-07-24T00:26:35;20.70;99.90
38604;DHT22;24924;50.054;8.790;2023-07-24T00:29:01;20.60;99.90
38604;DHT22;24924;50.054;8.790;2023-07-24T00:31:27;20.40;99.90
38604;DHT22;24924;50.054;8.790;2023-07-24T00:33:52;20.30;99.90
38604;DHT22;24924;50.054;8.790;2023-07-24T00:36:18;20.20;99.90
38604;DHT22;24924;50.054;8.790;2023-07-24T00:38:44;20.10;99.90
38604;DHT22;24924;50.054;8.790;2023-07-24T00:41:10;20.20;99.90
38604;DHT22;24924;50.054;8.790;2023-07-24T00:43:35;19.70;99.90
38604;DHT22;24924;50.054;8.790;2023-07-24T00:46:02;20.00;99.90
38604;DHT22;24924;50.054;8.790;2023-07-24T00:48:28;19.90;99.90
38604;DHT22;24924;50.054;8.790;2023-07-24T00:50:54;20.00;99.90
38604;DHT22;24924;50.054;8.790;2023-07-24T00:53:21;20.10;99.90
38604;DHT22;24924;50.054;8.790;2023-07-24T00:55:47;21.30;99.90
38604;DHT22;24924;50.054;8.790;2023-07-24T00:58:13;18.20;99.90
38604;DHT22;24924;50.054;8.790;2023-07-24T01:00:41;20.50;99.90
38604;DHT22;24924;50.054;8.790;2023-07-24T01:03:08;20.50;99.90
38604;DHT22;24924;50.054;8.790;2023-07-24T01:05:34;20.90;99.90
38604;DHT22;24924;50.054;8.790;2023-07-24T01:08:00;20.90;99.90
38604;DHT22;24924;50.054;8.790;2023-07-24T01:10:26;20.90;99.90
38604;DHT22;24924;50.054;8.790;2023-07-24T01:13:02;19.70;99.90
38604;DHT22;24924;50.054;8.790;2023-07-24T01:15:31;21.00;99.90
38604;DHT22;24924;50.054;8.790;2023-07-24T01:18:07;22.60;99.90
38604;DHT22;24924;50.054;8.790;2023-07-24T01:20:36;20.70;99.90
38604;DHT22;24924;50.054;8.790;2023-07-24T01:25:57;20.70;99.90
38604;DHT22;24924;50.054;8.790;2023-07-24T01:28:24;19.90;99.90
38604;DHT22;24924;50.054;8.790;2023-07-24T01:30:50;20.50;99.90
38604;DHT22;24924;50.054;8.790;2023-07-24T01:33:18;20.50;99.90
38604;DHT22;24924;50.054;8.790;2023-07-24T01:35:53;20.70;99.90
38604;DHT22;24924;50.054;8.790;2023-07-24T01:38:21;20.70;99.90
38604;DHT22;24924;50.054;8.790;2023-07-24T01:40:48;20.80;99.90
38604;DHT22;24924;50.054;8.790;2023-07-24T01:43:14;20.90;99.90
38604;DHT22;24924;50.054;8.790;2023-07-24T01:45:40;20.70;99.90
38604;DHT22;24924;50.054;8.790;2023-07-24T01:48:06;20.50;99.90
38604;DHT22;24924;50.054;8.790;2023-07-24T01:50:32;20.50;99.90
38604;DHT22;24924;50.054;8.790;2023-07-24T01:52:58;20.30;99.90
38604;DHT22;24924;50.054;8.790;2023-07-24T01:55:24;20.20;99.90
38604;DHT22;24924;50.054;8.790;2023-07-24T01:57:50;20.10;99.90
38604;DHT22;24924;50.054;8.790;2023-07-24T02:00:16;20.10;99.90
38604;DHT22;24924;50.054;8.790;2023-07-24T02:02:42;20.10;99.90
38604;DHT22;24924;50.054;8.790;2023-07-24T02:05:08;20.20;99.90
38604;DHT22;24924;50.054;8.790;2023-07-24T02:07:34;20.20;99.90
38604;DHT22;24924;50.054;8.790;2023-07-24T02:10:00;20.10;99.90
38604;DHT22;24924;50.054;8.790;2023-07-24T02:12:26;20.10;99.90
38604;DHT22;24924;50.054;8.790;2023-07-24T02:14:52;20.10;99.90
38604;DHT22;24924;50.054;8.790;2023-07-24T02:17:19;20.10;99.90
38604;DHT22;24924;50.054;8.790;2023-07-24T02:19:45;19.70;99.90
38604;DHT22;24924;50.054;8.790;2023-07-24T02:22:11;20.70;99.90
38604;DHT22;24924;50.054;8.790;2023-07-24T02:24:37;20.00;99.90
38604;DHT22;24924;50.054;8.790;2023-07-24T02:27:04;20.70;99.90
38604;DHT22;24924;50.054;8.790;2023-07-24T02:29:30;19.80;99.90
38604;DHT22;24924;50.054;8.790;2023-07-24T02:31:57;19.80;99.90
38604;DHT22;24924;50.054;8.790;2023-07-24T02:34:24;19.70;99.90
38604;DHT22;24924;50.054;8.790;2023-07-24T02:36:55;19.80;99.90
38604;DHT22;24924;50.054;8.790;2023-07-24T02:39:21;19.90;99.90
38604;DHT22;24924;50.054;8.790;2023-07-24T02:41:48;20.40;99.90
38604;DHT22;24924;50.054;8.790;2023-07-24T02:44:14;21.30;99.90
38604;DHT22;24924;50.054;8.790;2023-07-24T02:46:40;20.30;99.90
38604;DHT22;24924;50.054;8.790;2023-07-24T02:49:06;20.20;99.90
38604;DHT22;24924;50.054;8.790;2023-07-24T02:51:31;20.30;99.90
38604;DHT22;24924;50.054;8.790;2023-07-24T02:53:57;20.10;99.90
38604;DHT22;24924;50.054;8.790;2023-07-24T02:56:23;19.10;99.90
38604;DHT22;24924;50.054;8.790;2023-07-24T02:58:49;19.80;99.90
38604;DHT22;24924;50.054;8.790;2023-07-24T03:01:15;19.70;99.90
38604;DHT22;24924;50.054;8.790;2023-07-24T03:03:41;19.60;99.90
38604;DHT22;24924;50.054;8.790;2023-07-24T03:06:07;19.60;99.90
38604;DHT22;24924;50.054;8.790;2023-07-24T03:08:33;19.60;99.90
38604;DHT22;24924;50.054;8.790;2023-07-24T03:10:59;19.40;99.90
38604;DHT22;24924;50.054;8.790;2023-07-24T03:13:26;19.50;99.90
38604;DHT22;24924;50.054;8.790;2023-07-24T03:15:56;17.90;99.90
38604;DHT22;24924;50.054;8.790;2023-07-24T03:18:22;19.20;99.90
38604;DHT22;24924;50.054;8.790;2023-07-24T03:20:49;19.20;99.90
38604;DHT22;24924;50.054;8.790;2023-07-24T03:23:15;19.40;99.90
38604;DHT22;24924;50.054;8.790;2023-07-24T03:25:41;19.40;99.90
38604;DHT22;24924;50.054;8.790;2023-07-24T03:28:07;19.40;99.90
38604;DHT22;24924;50.054;8.790;2023-07-24T03:30:33;19.10;99.90
38604;DHT22;24924;50.054;8.790;2023-07-24T03:32:59;18.60;99.90
38604;DHT22;24924;50.054;8.790;2023-07-24T03:35:26;17.10;99.90
38604;DHT22;24924;50.054;8.790;2023-07-24T03:37:52;18.70;99.90
38604;DHT22;24924;50.054;8.790;2023-07-24T03:40:18;17.60;99.90
38604;DHT22;24924;50.054;8.790;2023-07-24T03:42:44;18.60;99.90
38604;DHT22;24924;50.054;8.790;2023-07-24T03:45:10;18.50;99.90
38604;DHT22;24924;50.054;8.790;2023-07-24T03:47:36;18.30;99.90
38604;DHT22;24924;50.054;8.790;2023-07-24T03:50:01;18.30;99.90
38604;DHT22;24924;50.054;8.790;2023-07-24T03:52:27;18.90;99.90
38604;DHT22;24924;50.054;8.790;2023-07-24T03:54:53;18.20;99.90
38604;DHT22;24924;50.054;8.790;2023-07-24T03:59:45;17.90;99.90
38604;DHT22;24924;50.054;8.790;2023-07-24T04:02:11;18.20;99.90
38604;DHT22;24924;50.054;8.790;2023-07-24T04:04:37;18.40;99.90
38604;DHT22;24924;50.054;8.790;2023-07-24T04:07:04;18.50;99.90
38604;DHT22;24924;50.054;8.790;2023-07-24T04:09:30;18.70;99.90
38604;DHT22;24924;50.054;8.790;2023-07-24T04:11:56;18.50;99.90
38604;DHT22;24924;50.054;8.790;2023-07-24T04:14:21;18.60;99.90
38604;DHT22;24924;50.054;8.790;2023-07-24T04:16:47;18.70;99.90
38604;DHT22;24924;50.054;8.790;2023-07-24T04:19:13;18.70;99.90
38604;DHT22;24924;50.054;8.790;2023-07-24T04:21:39;16.20;99.90
38604;DHT22;24924;50.054;8.790;2023-07-24T04:24:05;19.10;99.90
38604;DHT22;24924;50.054;8.790;2023-07-24T04:26:31;18.60;99.90
38604;DHT22;24924;50.054;8.790;2023-07-24T04:28:57;18.60;99.90
38604;DHT22;24924;50.054;8.790;2023-07-24T04:31:23;18.40;99.90
38604;DHT22;24924;50.054;8.790;2023-07-24T04:33:49;19.30;99.90
38604;DHT22;24924;50.054;8.790;2023-07-24T04:36:14;19.20;99.90
38604;DHT22;24924;50.054;8.790;2023-07-24T04:38:40;18.70;99.90
38604;DHT22;24924;50.054;8.790;2023-07-24T04:41:06;18.80;99.90
38604;DHT22;24924;50.054;8.790;2023-07-24T04:43:32;18.80;99.90
38604;DHT22;24924;50.054;8.790;2023-07-24T04:45:58;17.00;99.90
38604;DHT22;24924;50.054;8.790;2023-07-24T04:48:24;18.90;99.90
38604;DHT22;24924;50.054;8.790;2023-07-24T04:50:53;18.90;99.90
38604;DHT22;24924;50.054;8.790;2023-07-24T04:53:20;18.90;99.90
38604;DHT22;24924;50.054;8.790;2023-07-24T04:55:47;19.50;99.90
38604;DHT22;24924;50.054;8.790;2023-07-24T04:58:13;19.00;99.90
38604;DHT22;24924;50.054;8.790;2023-07-24T05:00:39;19.60;99.90
38604;DHT22;24924;50.054;8.790;2023-07-24T05:03:05;18.50;99.90
38604;DHT22;24924;50.054;8.790;2023-07-24T05:05:33;19.90;99.90
38604;DHT22;24924;50.054;8.790;2023-07-24T05:07:59;19.20;99.90
38604;DHT22;24924;50.054;8.790;2023-07-24T05:10:25;19.50;99.90
38604;DHT22;24924;50.054;8.790;2023-07-24T05:12:51;19.20;99.90
38604;DHT22;24924;50.054;8.790;2023-07-24T05:15:16;19.20;99.90
38604;DHT22;24924;50.054;8.790;2023-07-24T05:17:43;19.30;99.90
38604;DHT22;24924;50.054;8.790;2023-07-24T05:20:09;19.30;99.90
38604;DHT22;24924;50.054;8.790;2023-07-24T05:22:35;18.90;99.90
38604;DHT22;24924;50.054;8.790;2023-07-24T05:25:01;19.30;99.90
38604;DHT22;24924;50.054;8.790;2023-07-24T05:27:27;19.30;99.90
38604;DHT22;24924;50.054;8.790;2023-07-24T05:29:53;19.30;99.90
38604;DHT22;24924;50.054;8.790;2023-07-24T05:32:19;19.50;99.90
38604;DHT22;24924;50.054;8.790;2023-07-24T05:34:44;20.50;99.90
38604;DHT22;24924;50.054;8.790;2023-07-24T05:37:10;19.70;99.90
38604;DHT22;24924;50.054;8.790;2023-07-24T05:39:36;19.70;99.90
38604;DHT22;24924;50.054;8.790;2023-07-24T05:42:02;19.60;99.90
38604;DHT22;24924;50.054;8.790;2023-07-24T05:44:29;19.60;99.90
38604;DHT22;24924;50.054;8.790;2023-07-24T05:46:54;19.70;99.90
38604;DHT22;24924;50.054;8.790;2023-07-24T05:49:20;19.70;99.90
38604;DHT22;24924;50.054;8.790;2023-07-24T05:51:46;19.70;99.90
38604;DHT22;24924;50.054;8.790;2023-07-24T05:54:11;19.70;99.90
38604;DHT22;24924;50.054;8.790;2023-07-24T05:56:37;20.00;99.90
38604;DHT22;24924;50.054;8.790;2023-07-24T05:59:02;20.00;99.90
38604;DHT22;24924;50.054;8.790;2023-07-24T06:01:28;20.90;99.90
38604;DHT22;24924;50.054;8.790;2023-07-24T06:03:53;20.20;99.90
38604;DHT22;24924;50.054;8.790;2023-07-24T06:06:19;19.90;99.90
38604;DHT22;24924;50.054;8.790;2023-07-24T06:08:45;20.20;99.90
38604;DHT22;24924;50.054;8.790;2023-07-24T06:11:13;20.10;99.90
38604;DHT22;24924;50.054;8.790;2023-07-24T06:13:39;21.60;99.90
38604;DHT22;24924;50.054;8.790;2023-07-24T06:16:04;20.00;99.90
38604;DHT22;24924;50.054;8.790;2023-07-24T06:18:34;20.00;99.90
38604;DHT22;24924;50.054;8.790;2023-07-24T06:20:59;20.40;99.90
38604;DHT22;24924;50.054;8.790;2023-07-24T06:23:25;20.40;99.90
38604;DHT22;24924;50.054;8.790;2023-07-24T06:25:51;20.50;99.90
38604;DHT22;24924;50.054;8.790;2023-07-24T06:28:18;20.50;99.90
38604;DHT22;24924;50.054;8.790;2023-07-24T06:30:43;20.40;99.90
38604;DHT22;24924;50.054;8.790;2023-07-24T06:33:09;20.50;99.90
38604;DHT22;24924;50.054;8.790;2023-07-24T06:35:35;20.60;99.90
38604;DHT22;24924;50.054;8.790;2023-07-24T06:38:01;20.70;99.90
38604;DHT22;24924;50.054;8.790;2023-07-24T06:40:27;20.70;99.90
38604;DHT22;24924;50.054;8.790;2023-07-24T06:42:52;20.80;99.90
38604;DHT22;24924;50.054;8.790;2023-07-24T06:45:18;20.80;99.90
38604;DHT22;24924;50.054;8.790;2023-07-24T06:47:44;20.90;99.90
38604;DHT22;24924;50.054;8.790;2023-07-24T06:50:10;21.00;99.90
38604;DHT22;24924;50.054;8.790;2023-07-24T06:52:36;21.10;99.90
38604;DHT22;24924;50.054;8.790;2023-07-24T06:55:02;21.20;99.90
38604;DHT22;24924;50.054;8.790;2023-07-24T06:57:27;21.30;99.90
38604;DHT22;24924;50.054;8.790;2023-07-24T06:59:53;21.30;99.90
38604;DHT22;24924;50.054;8.790;2023-07-24T07:02:19;21.40;99.90
38604;DHT22;24924;50.054;8.790;2023-07-24T07:04:44;21.50;99.90
38604;DHT22;24924;50.054;8.790;2023-07-24T07:07:10;21.80;99.90
38604;DHT22;24924;50.054;8.790;2023-07-24T07:09:36;21.80;99.90
38604;DHT22;24924;50.054;8.790;2023-07-24T07:12:01;21.90;99.90
38604;DHT22;24924;50.054;8.790;2023-07-24T07:14:27;21.90;99.90
38604;DHT22;24924;50.054;8.790;2023-07-24T07:16:53;22.10;99.90
38604;DHT22;24924;50.054;8.790;2023-07-24T07:19:18;22.90;99.90
38604;DHT22;24924;50.054;8.790;2023-07-24T07:21:44;22.70;99.90
38604;DHT22;24924;50.054;8.790;2023-07-24T07:24:10;22.20;99.90
38604;DHT22;24924;50.054;8.790;2023-07-24T07:26:36;22.20;99.90
38604;DHT22;24924;50.054;8.790;2023-07-24T07:29:01;24.40;99.90
38604;DHT22;24924;50.054;8.790;2023-07-24T07:31:27;22.40;99.90
38604;DHT22;24924;50.054;8.790;2023-07-24T07:33:53;22.50;99.90
38604;DHT22;24924;50.054;8.790;2023-07-24T07:36:19;23.20;99.90
38604;DHT22;24924;50.054;8.790;2023-07-24T07:38:45;22.80;99.90
38604;DHT22;24924;50.054;8.790;2023-07-24T07:41:11;22.90;99.90
38604;DHT22;24924;50.054;8.790;2023-07-24T07:43:36;22.80;99.90
38604;DHT22;24924;50.054;8.790;2023-07-24T07:46:03;23.00;99.90
38604;DHT22;24924;50.054;8.790;2023-07-24T07:48:29;23.00;99.90
38604;DHT22;24924;50.054;8.790;2023-07-24T07:50:55;23.00;99.90
38604;DHT22;24924;50.054;8.790;2023-07-24T07:53:20;22.90;99.90
38604;DHT22;24924;50.054;8.790;2023-07-24T07:55:46;23.00;99.90
38604;DHT22;24924;50.054;8.790;2023-07-24T07:58:12;23.10;99.90
38604;DHT22;24924;50.054;8.790;2023-07-24T08:00:38;23.40;99.90
38604;DHT22;24924;50.054;8.790;2023-07-24T08:03:05;23.50;99.90
38604;DHT22;24924;50.054;8.790;2023-07-24T08:05:31;22.30;99.90
38604;DHT22;24924;50.054;8.790;2023-07-24T08:07:57;23.50;99.90
38604;DHT22;24924;50.054;8.790;2023-07-24T08:10:23;22.10;99.90
38604;DHT22;24924;50.054;8.790;2023-07-24T08:12:48;23.70;99.90
38604;DHT22;24924;50.054;8.790;2023-07-24T08:15:14;23.90;99.90
38604;DHT22;24924;50.054;8.790;2023-07-24T08:17:40;23.90;99.90
38604;DHT22;24924;50.054;8.790;2023-07-24T08:20:06;23.90;99.90
38604;DHT22;24924;50.054;8.790;2023-07-24T08:22:32;24.00;99.90
38604;DHT22;24924;50.054;8.790;2023-07-24T08:24:57;23.70;99.90
38604;DHT22;24924;50.054;8.790;2023-07-24T08:27:23;23.50;99.90
38604;DHT22;24924;50.054;8.790;2023-07-24T08:29:51;23.60;99.90
38604;DHT22;24924;50.054;8.790;2023-07-24T08:32:18;23.60;99.90
38604;DHT22;24924;50.054;8.790;2023-07-24T08:34:44;23.70;99.90
38604;DHT22;24924;50.054;8.790;2023-07-24T08:37:11;23.70;99.90
38604;DHT22;24924;50.054;8.790;2023-07-24T08:39:36;23.70;99.90
38604;DHT22;24924;50.054;8.790;2023-07-24T08:42:10;23.60;99.90
38604;DHT22;24924;50.054;8.790;2023-07-24T08:44:36;23.60;99.90
38604;DHT22;24924;50.054;8.790;2023-07-24T08:47:03;23.60;99.90
38604;DHT22;24924;50.054;8.790;2023-07-24T08:49:30;23.50;99.90
38604;DHT22;24924;50.054;8.790;2023-07-24T08:51:56;24.60;99.90
38604;DHT22;24924;50.054;8.790;2023-07-24T08:54:23;23.50;99.90
38604;DHT22;24924;50.054;8.790;2023-07-24T08:56:50;23.50;99.90
38604;DHT22;24924;50.054;8.790;2023-07-24T08:59:19;23.50;99.90
38604;DHT22;24924;50.054;8.790;2023-07-24T09:01:45;23.50;99.90
38604;DHT22;24924;50.054;8.790;2023-07-24T09:04:11;23.50;99.90
38604;DHT22;24924;50.054;8.790;2023-07-24T09:06:37;23.60;99.90
38604;DHT22;24924;50.054;8.790;2023-07-24T09:09:12;23.60;99.90
38604;DHT22;24924;50.054;8.790;2023-07-24T09:11:58;23.70;99.90
38604;DHT22;24924;50.054;8.790;2023-07-24T09:14:29;24.20;99.90
38604;DHT22;24924;50.054;8.790;2023-07-24T09:17:08;24.60;99.90
38604;DHT22;24924;50.054;8.790;2023-07-24T09:19:35;24.20;99.90
38604;DHT22;24924;50.054;8.790;2023-07-24T09:22:11;24.40;99.90
38604;DHT22;24924;50.054;8.790;2023-07-24T09:24:48;24.40;99.90
38604;DHT22;24924;50.054;8.790;2023-07-24T09:27:14;24.60;99.90
38604;DHT22;24924;50.054;8.790;2023-07-24T09:29:40;23.30;99.90
38604;DHT22;24924;50.054;8.790;2023-07-24T09:32:06;24.50;99.90
38604;DHT22;24924;50.054;8.790;2023-07-24T09:34:32;24.30;99.90
38604;DHT22;24924;50.054;8.790;2023-07-24T09:36:58;24.30;99.90
38604;DHT22;24924;50.054;8.790;2023-07-24T09:39:25;24.30;99.90
38604;DHT22;24924;50.054;8.790;2023-07-24T09:41:51;23.90;99.90
38604;DHT22;24924;50.054;8.790;2023-07-24T09:44:17;24.00;99.90
38604;DHT22;24924;50.054;8.790;2023-07-24T09:46:43;24.00;99.90
38604;DHT22;24924;50.054;8.790;2023-07-24T09:49:09;23.60;99.90
38604;DHT22;24924;50.054;8.790;2023-07-24T09:51:35;24.00;99.90
38604;DHT22;24924;50.054;8.790;2023-07-24T09:54:15;23.80;99.90
38604;DHT22;24924;50.054;8.790;2023-07-24T09:56:47;24.20;99.90
38604;DHT22;24924;50.054;8.790;2023-07-24T09:59:13;24.10;99.90
38604;DHT22;24924;50.054;8.790;2023-07-24T10:01:39;24.10;99.90
38604;DHT22;24924;50.054;8.790;2023-07-24T10:04:06;24.20;99.90
38604;DHT22;24924;50.054;8.790;2023-07-24T10:06:33;24.30;99.90
38604;DHT22;24924;50.054;8.790;2023-07-24T10:08:59;24.30;99.90
38604;DHT22;24924;50.054;8.790;2023-07-24T10:11:26;24.50;99.90
38604;DHT22;24924;50.054;8.790;2023-07-24T10:13:52;24.40;99.90
38604;DHT22;24924;50.054;8.790;2023-07-24T10:16:19;23.20;99.90
38604;DHT22;24924;50.054;8.790;2023-07-24T10:18:46;24.20;99.90
38604;DHT22;24924;50.054;8.790;2023-07-24T10:21:12;24.10;99.90
38604;DHT22;24924;50.054;8.790;2023-07-24T10:23:43;24.20;99.90
38604;DHT22;24924;50.054;8.790;2023-07-24T10:26:10;24.20;99.90
38604;DHT22;24924;50.054;8.790;2023-07-24T10:28:38;24.20;99.90
38604;DHT22;24924;50.054;8.790;2023-07-24T10:31:07;24.30;99.90
38604;DHT22;24924;50.054;8.790;2023-07-24T10:33:36;24.30;99.90
38604;DHT22;24924;50.054;8.790;2023-07-24T10:36:09;24.20;99.90
38604;DHT22;24924;50.054;8.790;2023-07-24T10:38:39;24.20;99.90
38604;DHT22;24924;50.054;8.790;2023-07-24T10:41:06;24.20;99.90
38604;DHT22;24924;50.054;8.790;2023-07-24T10:43:46;24.30;99.90
38604;DHT22;24924;50.054;8.790;2023-07-24T10:46:13;24.50;99.90
38604;DHT22;24924;50.054;8.790;2023-07-24T10:48:47;24.70;99.90
38604;DHT22;24924;50.054;8.790;2023-07-24T10:51:14;24.80;99.90
38604;DHT22;24924;50.054;8.790;2023-07-24T10:53:49;24.90;99.90
38604;DHT22;24924;50.054;8.790;2023-07-24T10:56:16;25.20;99.90
38604;DHT22;24924;50.054;8.790;2023-07-24T10:58:42;25.10;99.90
38604;DHT22;24924;50.054;8.790;2023-07-24T11:01:08;25.00;99.90
38604;DHT22;24924;50.054;8.790;2023-07-24T11:03:40;25.30;99.90
38604;DHT22;24924;50.054;8.790;2023-07-24T11:06:15;25.00;99.90
38604;DHT22;24924;50.054;8.790;2023-07-24T11:08:41;25.00;99.90
38604;DHT22;24924;50.054;8.790;2023-07-24T11:11:07;25.10;99.90
38604;DHT22;24924;50.054;8.790;2023-07-24T11:13:33;25.00;99.90
38604;DHT22;24924;50.054;8.790;2023-07-24T11:16:05;25.10;99.90
38604;DHT22;24924;50.054;8.790;2023-07-24T11:18:30;25.20;99.90
38604;DHT22;24924;50.054;8.790;2023-07-24T11:20:56;25.40;99.90
38604;DHT22;24924;50.054;8.790;2023-07-24T11:23:23;25.40;99.90
38604;DHT22;24924;50.054;8.790;2023-07-24T11:25:53;25.20;99.90
38604;DHT22;24924;50.054;8.790;2023-07-24T11:28:19;25.40;99.90
38604;DHT22;24924;50.054;8.790;2023-07-24T11:30:46;25.50;99.90
38604;DHT22;24924;50.054;8.790;2023-07-24T11:33:14;25.40;99.90
38604;DHT22;24924;50.054;8.790;2023-07-24T11:35:40;25.30;99.90
38604;DHT22;24924;50.054;8.790;2023-07-24T11:38:08;25.10;99.90
38604;DHT22;24924;50.054;8.790;2023-07-24T11:40:42;25.00;99.90
38604;DHT22;24924;50.054;8.790;2023-07-24T11:43:23;25.10;99.90
38604;DHT22;24924;50.054;8.790;2023-07-24T11:45:51;25.20;99.90
38604;DHT22;24924;50.054;8.790;2023-07-24T11:48:22;25.40;99.90
38604;DHT22;24924;50.054;8.790;2023-07-24T11:50:56;25.50;99.90
38604;DHT22;24924;50.054;8.790;2023-07-24T11:53:30;25.60;99.90
38604;DHT22;24924;50.054;8.790;2023-07-24T11:56:00;25.60;99.90
38604;DHT22;24924;50.054;8.790;2023-07-24T11:58:29;25.60;99.30
38604;DHT22;24924;50.054;8.790;2023-07-24T12:00:55;25.50;99.70
38604;DHT22;24924;50.054;8.790;2023-07-24T12:03:28;25.50;99.90
38604;DHT22;24924;50.054;8.790;2023-07-24T12:05:54;26.10;99.90
38604;DHT22;24924;50.054;8.790;2023-07-24T12:08:21;25.90;99.90
38604;DHT22;24924;50.054;8.790;2023-07-24T12:10:54;26.10;99.90
38604;DHT22;24924;50.054;8.790;2023-07-24T12:13:20;26.60;99.60
38604;DHT22;24924;50.054;8.790;2023-07-24T12:15:46;26.90;99.90
38604;DHT22;24924;50.054;8.790;2023-07-24T12:18:11;26.20;99.90
38604;DHT22;24924;50.054;8.790;2023-07-24T12:20:37;25.80;99.90
38604;DHT22;24924;50.054;8.790;2023-07-24T12:23:03;25.70;99.90
38604;DHT22;24924;50.054;8.790;2023-07-24T12:25:29;26.00;99.90
38604;DHT22;24924;50.054;8.790;2023-07-24T12:27:55;26.20;99.90
38604;DHT22;24924;50.054;8.790;2023-07-24T12:30:21;25.90;99.90
38604;DHT22;24924;50.054;8.790;2023-07-24T12:32:47;26.20;99.90
38604;DHT22;24924;50.054;8.790;2023-07-24T12:35:12;26.40;99.90
38604;DHT22;24924;50.054;8.790;2023-07-24T12:37:38;26.50;99.90
38604;DHT22;24924;50.054;8.790;2023-07-24T12:40:08;26.40;99.90
38604;DHT22;24924;50.054;8.790;2023-07-24T12:42:34;26.50;99.40
38604;DHT22;24924;50.054;8.790;2023-07-24T12:45:00;26.80;98.60
38604;DHT22;24924;50.054;8.790;2023-07-24T12:47:28;26.90;96.90
38604;DHT22;24924;50.054;8.790;2023-07-24T12:49:53;27.00;97.80
38604;DHT22;24924;50.054;8.790;2023-07-24T12:52:21;27.30;97.80
38604;DHT22;24924;50.054;8.790;2023-07-24T12:54:47;27.10;96.70
38604;DHT22;24924;50.054;8.790;2023-07-24T12:57:12;26.80;97.10
38604;DHT22;24924;50.054;8.790;2023-07-24T12:59:38;26.70;97.50
38604;DHT22;24924;50.054;8.790;2023-07-24T13:02:04;26.00;97.80
38604;DHT22;24924;50.054;8.790;2023-07-24T13:04:30;26.50;98.10
38604;DHT22;24924;50.054;8.790;2023-07-24T13:06:55;26.30;98.10
38604;DHT22;24924;50.054;8.790;2023-07-24T13:09:21;26.30;98.30
38604;DHT22;24924;50.054;8.790;2023-07-24T13:11:47;26.10;98.70
38604;DHT22;24924;50.054;8.790;2023-07-24T13:14:16;25.90;98.70
38604;DHT22;24924;50.054;8.790;2023-07-24T13:16:42;26.00;98.30
38604;DHT22;24924;50.054;8.790;2023-07-24T13:19:07;26.00;99.00
38604;DHT22;24924;50.054;8.790;2023-07-24T13:21:33;25.80;99.00
38604;DHT22;24924;50.054;8.790;2023-07-24T13:23:59;25.60;99.20
38604;DHT22;24924;50.054;8.790;2023-07-24T13:26:24;27.60;99.90
38604;DHT22;24924;50.054;8.790;2023-07-24T13:28:50;25.60;99.80
38604;DHT22;24924;50.054;8.790;2023-07-24T13:31:18;25.60;99.90
38604;DHT22;24924;50.054;8.790;2023-07-24T13:33:44;25.70;99.90
38604;DHT22;24924;50.054;8.790;2023-07-24T13:36:10;25.30;99.90
38604;DHT22;24924;50.054;8.790;2023-07-24T13:38:37;25.20;99.90
38604;DHT22;24924;50.054;8.790;2023-07-24T13:41:03;25.20;99.90
38604;DHT22;24924;50.054;8.790;2023-07-24T13:43:30;25.20;99.90
38604;DHT22;24924;50.054;8.790;2023-07-24T13:45:57;25.20;99.90
38604;DHT22;24924;50.054;8.790;2023-07-24T13:48:23;25.10;99.90
38604;DHT22;24924;50.054;8.790;2023-07-24T13:50:49;25.10;99.90
38604;DHT22;24924;50.054;8.790;2023-07-24T13:53:15;25.10;99.90
38604;DHT22;24924;50.054;8.790;2023-07-24T13:55:41;25.20;99.90
38604;DHT22;24924;50.054;8.790;2023-07-24T13:58:06;25.10;99.90
38604;DHT22;24924;50.054;8.790;2023-07-24T14:00:32;25.00;99.90
38604;DHT22;24924;50.054;8.790;2023-07-24T14:02:57;24.90;99.90
38604;DHT22;24924;50.054;8.790;2023-07-24T14:05:24;24.70;99.90
38604;DHT22;24924;50.054;8.790;2023-07-24T14:07:49;23.20;99.90
38604;DHT22;24924;50.054;8.790;2023-07-24T14:10:15;23.00;99.90
38604;DHT22;24924;50.054;8.790;2023-07-24T14:12:41;23.10;99.90
38604;DHT22;24924;50.054;8.790;2023-07-24T14:15:07;23.30;99.90
38604;DHT22;24924;50.054;8.790;2023-07-24T14:17:33;23.20;99.90
38604;DHT22;24924;50.054;8.790;2023-07-24T14:20:01;23.10;99.90
38604;DHT22;24924;50.054;8.790;2023-07-24T14:22:27;22.90;99.90
38604;DHT22;24924;50.054;8.790;2023-07-24T14:24:53;23.00;99.90
38604;DHT22;24924;50.054;8.790;2023-07-24T14:27:19;22.50;99.90
38604;DHT22;24924;50.054;8.790;2023-07-24T14:29:45;22.80;99.90
38604;DHT22;24924;50.054;8.790;2023-07-24T14:32:11;23.40;99.90
38604;DHT22;24924;50.054;8.790;2023-07-24T14:34:36;23.50;99.90
38604;DHT22;24924;50.054;8.790;2023-07-24T14:37:02;24.00;99.90
38604;DHT22;24924;50.054;8.790;2023-07-24T14:39:27;23.90;99.90
38604;DHT22;24924;50.054;8.790;2023-07-24T14:41:53;24.10;99.90
38604;DHT22;24924;50.054;8.790;2023-07-24T14:44:18;24.50;99.90
38604;DHT22;24924;50.054;8.790;2023-07-24T14:46:44;24.80;99.90
38604;DHT22;24924;50.054;8.790;2023-07-24T14:49:10;24.80;99.90
38604;DHT22;24924;50.054;8.790;2023-07-24T14:51:36;24.80;99.90
38604;DHT22;24924;50.054;8.790;2023-07-24T14:54:02;25.00;99.90
38604;DHT22;24924;50.054;8.790;2023-07-24T14:56:27;25.80;99.90
38604;DHT22;24924;50.054;8.790;2023-07-24T14:58:53;25.70;99.90
38604;DHT22;24924;50.054;8.790;2023-07-24T15:01:18;25.90;99.90
38604;DHT22;24924;50.054;8.790;2023-07-24T15:03:44;26.70;99.90
38604;DHT22;24924;50.054;8.790;2023-07-24T15:06:09;26.80;99.90
38604;DHT22;24924;50.054;8.790;2023-07-24T15:08:35;27.30;99.90
38604;DHT22;24924;50.054;8.790;2023-07-24T15:11:01;29.00;99.90
38604;DHT22;24924;50.054;8.790;2023-07-24T15:13:28;28.30;99.90
38604;DHT22;24924;50.054;8.790;2023-07-24T15:15:53;28.40;99.90
38604;DHT22;24924;50.054;8.790;2023-07-24T15:18:19;28.10;99.90
38604;DHT22;24924;50.054;8.790;2023-07-24T15:20:45;27.80;99.90
38604;DHT22;24924;50.054;8.790;2023-07-24T15:23:10;26.80;99.90
38604;DHT22;24924;50.054;8.790;2023-07-24T15:25:38;26.00;99.90
38604;DHT22;24924;50.054;8.790;2023-07-24T15:28:04;25.50;99.90
38604;DHT22;24924;50.054;8.790;2023-07-24T15:30:30;25.20;99.90
38604;DHT22;24924;50.054;8.790;2023-07-24T15:32:55;24.90;99.90